sensor_id;sensor_type;location;lat;lon;timestamp;temperature;humidity
70269;DHT22;58514;48.398;-4.274;2023-02-28T00:02:16;5.40;75.30
70269;DHT22;58514;48.398;-4.274;2023-02-28T00:04:43;5.40;76.00
70269;DHT22;58514;48.398;-4.274;2023-02-28T00:07:09;5.50;75.80
70269;DHT22;58514;48.398;-4.274;2023-02-28T00:09:34;5.40;75.40
70269;DHT22;58514;48.398;-4.274;2023-02-28T00:12:00;5.40;75.70
70269;DHT22;58514;48.398;-4.274;2023-02-28T00:14:29;5.40;76.00
70269;DHT22;58514;48.398;-4.274;2023-02-28T00:16:55;5.40;76.00
70269;DHT22;58514;48.398;-4.274;2023-02-28T00:19:21;5.50;75.80
70269;DHT22;58514;48.398;-4.274;2023-02-28T00:21:46;5.50;75.90
70269;DHT22;58514;48.398;-4.274;2023-02-28T00:24:12;5.50;76.10
70269;DHT22;58514;48.398;-4.274;2023-02-28T00:26:37;5.50;75.90
70269;DHT22;58514;48.398;-4.274;2023-02-28T00:29:03;5.50;76.00
70269;DHT22;58514;48.398;-4.274;2023-02-28T00:31:28;5.50;75.90
70269;DHT22;58514;48.398;-4.274;2023-02-28T00:33:54;5.50;75.70
70269;DHT22;58514;48.398;-4.274;2023-02-28T00:36:19;5.50;76.10
70269;DHT22;58514;48.398;-4.274;2023-02-28T00:38:45;5.50;76.30
70269;DHT22;58514;48.398;-4.274;2023-02-28T00:41:10;5.50;76.10
70269;DHT22;58514;48.398;-4.274;2023-02-28T00:43:37;5.50;76.30
70269;DHT22;58514;48.398;-4.274;2023-02-28T00:46:03;5.50;76.10
70269;DHT22;58514;48.398;-4.274;2023-02-28T00:48:29;5.50;76.00
70269;DHT22;58514;48.398;-4.274;2023-02-28T00:50:55;5.50;75.90
70269;DHT22;58514;48.398;-4.274;2023-02-28T00:53:20;5.50;76.30
70269;DHT22;58514;48.398;-4.274;2023-02-28T00:55:48;5.50;76.70
70269;DHT22;58514;48.398;-4.274;2023-02-28T00:58:13;5.40;76.20
70269;DHT22;58514;48.398;-4.274;2023-02-28T01:00:39;5.40;75.80
70269;DHT22;58514;48.398;-4.274;2023-02-28T01:03:04;5.40;76.40
70269;DHT22;58514;48.398;-4.274;2023-02-28T01:05:30;5.40;76.20
70269;DHT22;58514;48.398;-4.274;2023-02-28T01:07:56;5.30;76.30
70269;DHT22;58514;48.398;-4.274;2023-02-28T01:10:22;5.30;76.50
70269;DHT22;58514;48.398;-4.274;2023-02-28T01:12:47;5.30;76.40
70269;DHT22;58514;48.398;-4.274;2023-02-28T01:15:13;5.30;76.50
70269;DHT22;58514;48.398;-4.274;2023-02-28T01:17:39;5.30;76.50
70269;DHT22;58514;48.398;-4.274;2023-02-28T01:20:05;5.20;76.30
70269;DHT22;58514;48.398;-4.274;2023-02-28T01:22:31;5.20;76.40
70269;DHT22;58514;48.398;-4.274;2023-02-28T01:24:56;5.20;76.40
70269;DHT22;58514;48.398;-4.274;2023-02-28T01:27:22;5.20;76.60
70269;DHT22;58514;48.398;-4.274;2023-02-28T01:29:47;5.10;76.50
70269;DHT22;58514;48.398;-4.274;2023-02-28T01:32:13;5.10;76.60
70269;DHT22;58514;48.398;-4.274;2023-02-28T01:34:39;5.20;77.20
70269;DHT22;58514;48.398;-4.274;2023-02-28T01:37:04;5.20;77.60
70269;DHT22;58514;48.398;-4.274;2023-02-28T01:39:30;5.20;77.90
70269;DHT22;58514;48.398;-4.274;2023-02-28T01:41:56;5.20;77.40
70269;DHT22;58514;48.398;-4.274;2023-02-28T01:47:40;5.30;77.60
70269;DHT22;58514;48.398;-4.274;2023-02-28T01:50:19;5.40;77.70
70269;DHT22;58514;48.398;-4.274;2023-02-28T01:52:46;5.40;77.70
70269;DHT22;58514;48.398;-4.274;2023-02-28T01:55:13;5.40;77.70
70269;DHT22;58514;48.398;-4.274;2023-02-28T01:57:47;5.50;78.00
70269;DHT22;58514;48.398;-4.274;2023-02-28T02:00:16;5.50;77.80
70269;DHT22;58514;48.398;-4.274;2023-02-28T02:02:46;5.50;77.90
70269;DHT22;58514;48.398;-4.274;2023-02-28T02:05:16;5.50;77.80
70269;DHT22;58514;48.398;-4.274;2023-02-28T02:07:45;5.60;77.90
70269;DHT22;58514;48.398;-4.274;2023-02-28T02:19:36;5.80;78.20
70269;DHT22;58514;48.398;-4.274;2023-02-28T02:24:59;5.80;78.10
70269;DHT22;58514;48.398;-4.274;2023-02-28T02:35:54;5.90;77.70
70269;DHT22;58514;48.398;-4.274;2023-02-28T02:38:47;5.90;77.70
70269;DHT22;58514;48.398;-4.274;2023-02-28T02:41:25;5.80;77.70
70269;DHT22;58514;48.398;-4.274;2023-02-28T02:43:58;5.90;78.00
70269;DHT22;58514;48.398;-4.274;2023-02-28T02:46:32;5.90;78.10
70269;DHT22;58514;48.398;-4.274;2023-02-28T02:49:01;5.90;78.10
70269;DHT22;58514;48.398;-4.274;2023-02-28T02:51:30;5.90;78.30
70269;DHT22;58514;48.398;-4.274;2023-02-28T02:54:08;5.90;78.30
70269;DHT22;58514;48.398;-4.274;2023-02-28T02:56:35;5.90;78.30
70269;DHT22;58514;48.398;-4.274;2023-02-28T02:59:04;5.90;78.20
70269;DHT22;58514;48.398;-4.274;2023-02-28T03:01:32;6.00;78.30
70269;DHT22;58514;48.398;-4.274;2023-02-28T03:04:02;6.00;78.40
70269;DHT22;58514;48.398;-4.274;2023-02-28T03:06:29;6.00;78.30
70269;DHT22;58514;48.398;-4.274;2023-02-28T03:08:54;6.00;78.10
70269;DHT22;58514;48.398;-4.274;2023-02-28T03:11:20;5.90;77.90
70269;DHT22;58514;48.398;-4.274;2023-02-28T03:25:36;5.90;78.10
70269;DHT22;58514;48.398;-4.274;2023-02-28T03:31:13;5.90;78.30
70269;DHT22;58514;48.398;-4.274;2023-02-28T03:33:46;6.00;78.60
70269;DHT22;58514;48.398;-4.274;2023-02-28T03:36:25;6.00;78.70
70269;DHT22;58514;48.398;-4.274;2023-02-28T03:39:04;6.00;78.80
70269;DHT22;58514;48.398;-4.274;2023-02-28T03:41:36;6.10;79.00
70269;DHT22;58514;48.398;-4.274;2023-02-28T03:44:09;6.10;79.00
70269;DHT22;58514;48.398;-4.274;2023-02-28T03:46:44;6.10;78.90
70269;DHT22;58514;48.398;-4.274;2023-02-28T03:49:20;6.10;78.70
70269;DHT22;58514;48.398;-4.274;2023-02-28T03:51:49;6.10;78.70
70269;DHT22;58514;48.398;-4.274;2023-02-28T03:54:20;6.10;78.60
70269;DHT22;58514;48.398;-4.274;2023-02-28T03:56:50;6.10;78.60
70269;DHT22;58514;48.398;-4.274;2023-02-28T03:59:50;6.10;78.80
70269;DHT22;58514;48.398;-4.274;2023-02-28T04:02:18;6.10;78.90
70269;DHT22;58514;48.398;-4.274;2023-02-28T04:04:44;6.10;78.90
70269;DHT22;58514;48.398;-4.274;2023-02-28T04:07:14;6.10;79.00
70269;DHT22;58514;48.398;-4.274;2023-02-28T04:09:40;6.10;79.00
70269;DHT22;58514;48.398;-4.274;2023-02-28T04:12:06;6.10;79.10
70269;DHT22;58514;48.398;-4.274;2023-02-28T04:14:32;6.20;79.20
70269;DHT22;58514;48.398;-4.274;2023-02-28T04:16:58;6.10;79.00
70269;DHT22;58514;48.398;-4.274;2023-02-28T04:19:24;6.10;78.90
70269;DHT22;58514;48.398;-4.274;2023-02-28T04:21:51;6.20;79.00
70269;DHT22;58514;48.398;-4.274;2023-02-28T04:24:27;6.10;78.60
70269;DHT22;58514;48.398;-4.274;2023-02-28T04:26:55;6.10;78.60
70269;DHT22;58514;48.398;-4.274;2023-02-28T04:29:23;6.10;78.60
70269;DHT22;58514;48.398;-4.274;2023-02-28T04:31:49;6.10;78.70
70269;DHT22;58514;48.398;-4.274;2023-02-28T04:34:15;6.10;78.80
70269;DHT22;58514;48.398;-4.274;2023-02-28T04:36:41;6.00;78.30
70269;DHT22;58514;48.398;-4.274;2023-02-28T04:39:08;6.00;79.10
70269;DHT22;58514;48.398;-4.274;2023-02-28T04:41:35;6.10;78.90
70269;DHT22;58514;48.398;-4.274;2023-02-28T04:44:00;6.10;79.60
70269;DHT22;58514;48.398;-4.274;2023-02-28T04:46:26;6.10;79.80
70269;DHT22;58514;48.398;-4.274;2023-02-28T04:48:52;6.10;80.60
70269;DHT22;58514;48.398;-4.274;2023-02-28T04:51:19;6.10;80.40
70269;DHT22;58514;48.398;-4.274;2023-02-28T04:53:45;6.20;80.80
70269;DHT22;58514;48.398;-4.274;2023-02-28T04:56:13;6.20;81.00
70269;DHT22;58514;48.398;-4.274;2023-02-28T04:58:39;6.20;80.50
70269;DHT22;58514;48.398;-4.274;2023-02-28T05:01:32;6.20;80.30
70269;DHT22;58514;48.398;-4.274;2023-02-28T05:03:59;6.10;80.00
70269;DHT22;58514;48.398;-4.274;2023-02-28T05:06:27;6.10;79.90
70269;DHT22;58514;48.398;-4.274;2023-02-28T05:08:53;6.00;79.90
70269;DHT22;58514;48.398;-4.274;2023-02-28T05:11:20;6.00;80.30
70269;DHT22;58514;48.398;-4.274;2023-02-28T05:13:47;6.00;80.40
70269;DHT22;58514;48.398;-4.274;2023-02-28T05:16:13;6.00;81.20
70269;DHT22;58514;48.398;-4.274;2023-02-28T05:18:39;6.00;80.90
70269;DHT22;58514;48.398;-4.274;2023-02-28T05:21:05;6.00;80.70
70269;DHT22;58514;48.398;-4.274;2023-02-28T05:23:31;6.00;80.20
70269;DHT22;58514;48.398;-4.274;2023-02-28T05:25:57;6.00;80.30
70269;DHT22;58514;48.398;-4.274;2023-02-28T05:28:23;6.00;80.50
70269;DHT22;58514;48.398;-4.274;2023-02-28T05:30:49;6.10;81.00
70269;DHT22;58514;48.398;-4.274;2023-02-28T05:33:14;6.10;81.10
70269;DHT22;58514;48.398;-4.274;2023-02-28T05:35:41;6.10;81.10
70269;DHT22;58514;48.398;-4.274;2023-02-28T05:38:08;6.20;81.30
70269;DHT22;58514;48.398;-4.274;2023-02-28T05:40:34;6.20;81.60
70269;DHT22;58514;48.398;-4.274;2023-02-28T05:43:00;6.20;81.60
70269;DHT22;58514;48.398;-4.274;2023-02-28T05:45:26;6.20;81.60
70269;DHT22;58514;48.398;-4.274;2023-02-28T05:47:55;6.30;81.70
70269;DHT22;58514;48.398;-4.274;2023-02-28T05:50:21;6.20;81.70
70269;DHT22;58514;48.398;-4.274;2023-02-28T05:52:51;6.30;81.80
70269;DHT22;58514;48.398;-4.274;2023-02-28T05:55:16;6.30;81.90
70269;DHT22;58514;48.398;-4.274;2023-02-28T05:57:42;6.30;82.50
70269;DHT22;58514;48.398;-4.274;2023-02-28T06:00:09;6.30;82.00
70269;DHT22;58514;48.398;-4.274;2023-02-28T06:02:34;6.30;81.80
70269;DHT22;58514;48.398;-4.274;2023-02-28T06:05:00;6.30;82.00
70269;DHT22;58514;48.398;-4.274;2023-02-28T06:07:26;6.30;82.10
70269;DHT22;58514;48.398;-4.274;2023-02-28T06:09:52;6.30;82.30
70269;DHT22;58514;48.398;-4.274;2023-02-28T06:12:17;6.20;82.10
70269;DHT22;58514;48.398;-4.274;2023-02-28T06:14:43;6.20;82.20
70269;DHT22;58514;48.398;-4.274;2023-02-28T06:17:09;6.20;82.00
70269;DHT22;58514;48.398;-4.274;2023-02-28T06:19:37;6.10;81.70
70269;DHT22;58514;48.398;-4.274;2023-02-28T06:22:04;6.00;81.60
70269;DHT22;58514;48.398;-4.274;2023-02-28T06:24:30;6.00;81.70
70269;DHT22;58514;48.398;-4.274;2023-02-28T06:26:57;5.90;81.80
70269;DHT22;58514;48.398;-4.274;2023-02-28T06:29:30;5.90;82.00
70269;DHT22;58514;48.398;-4.274;2023-02-28T06:31:56;5.90;82.30
70269;DHT22;58514;48.398;-4.274;2023-02-28T06:34:22;5.90;82.60
70269;DHT22;58514;48.398;-4.274;2023-02-28T06:36:51;5.90;82.00
70269;DHT22;58514;48.398;-4.274;2023-02-28T06:39:16;5.90;82.10
70269;DHT22;58514;48.398;-4.274;2023-02-28T06:41:42;5.90;82.50
70269;DHT22;58514;48.398;-4.274;2023-02-28T06:44:16;6.00;82.30
70269;DHT22;58514;48.398;-4.274;2023-02-28T06:46:43;5.90;81.90
70269;DHT22;58514;48.398;-4.274;2023-02-28T06:49:10;6.00;81.90
70269;DHT22;58514;48.398;-4.274;2023-02-28T06:51:36;5.90;82.00
70269;DHT22;58514;48.398;-4.274;2023-02-28T06:54:03;5.90;82.10
70269;DHT22;58514;48.398;-4.274;2023-02-28T06:56:29;5.90;82.00
70269;DHT22;58514;48.398;-4.274;2023-02-28T06:58:55;5.90;81.60
70269;DHT22;58514;48.398;-4.274;2023-02-28T07:01:22;5.90;80.90
70269;DHT22;58514;48.398;-4.274;2023-02-28T07:03:50;5.80;80.80
70269;DHT22;58514;48.398;-4.274;2023-02-28T07:06:21;5.80;81.10
70269;DHT22;58514;48.398;-4.274;2023-02-28T07:08:52;5.80;81.50
70269;DHT22;58514;48.398;-4.274;2023-02-28T07:11:19;5.80;81.40
70269;DHT22;58514;48.398;-4.274;2023-02-28T07:13:44;5.80;81.10
70269;DHT22;58514;48.398;-4.274;2023-02-28T07:16:12;5.80;81.40
70269;DHT22;58514;48.398;-4.274;2023-02-28T07:18:38;5.80;81.30
70269;DHT22;58514;48.398;-4.274;2023-02-28T07:21:05;5.80;81.60
70269;DHT22;58514;48.398;-4.274;2023-02-28T07:23:32;5.80;81.20
70269;DHT22;58514;48.398;-4.274;2023-02-28T07:25:58;5.80;81.20
70269;DHT22;58514;48.398;-4.274;2023-02-28T07:28:24;5.80;81.40
70269;DHT22;58514;48.398;-4.274;2023-02-28T07:30:50;5.90;81.30
70269;DHT22;58514;48.398;-4.274;2023-02-28T07:33:16;5.90;81.00
70269;DHT22;58514;48.398;-4.274;2023-02-28T07:35:42;5.90;81.30
70269;DHT22;58514;48.398;-4.274;2023-02-28T07:38:08;5.90;81.40
70269;DHT22;58514;48.398;-4.274;2023-02-28T07:40:35;5.90;81.50
70269;DHT22;58514;48.398;-4.274;2023-02-28T07:43:02;6.00;81.40
70269;DHT22;58514;48.398;-4.274;2023-02-28T07:45:29;6.00;81.30
70269;DHT22;58514;48.398;-4.274;2023-02-28T07:47:55;6.00;81.00
70269;DHT22;58514;48.398;-4.274;2023-02-28T07:50:21;6.00;80.80
70269;DHT22;58514;48.398;-4.274;2023-02-28T07:52:47;6.00;81.00
70269;DHT22;58514;48.398;-4.274;2023-02-28T07:55:13;6.00;81.40
70269;DHT22;58514;48.398;-4.274;2023-02-28T07:57:40;6.10;81.40
70269;DHT22;58514;48.398;-4.274;2023-02-28T08:00:07;6.10;81.60
70269;DHT22;58514;48.398;-4.274;2023-02-28T08:02:35;6.20;80.70
70269;DHT22;58514;48.398;-4.274;2023-02-28T08:05:00;6.20;81.60
70269;DHT22;58514;48.398;-4.274;2023-02-28T08:07:26;6.20;81.10
70269;DHT22;58514;48.398;-4.274;2023-02-28T08:09:52;6.20;81.30
70269;DHT22;58514;48.398;-4.274;2023-02-28T08:12:18;6.30;81.50
70269;DHT22;58514;48.398;-4.274;2023-02-28T08:14:44;6.40;81.60
70269;DHT22;58514;48.398;-4.274;2023-02-28T08:17:10;6.40;82.00
70269;DHT22;58514;48.398;-4.274;2023-02-28T08:19:36;6.50;81.30
70269;DHT22;58514;48.398;-4.274;2023-02-28T08:22:02;6.60;81.20
70269;DHT22;58514;48.398;-4.274;2023-02-28T08:24:28;6.70;81.10
70269;DHT22;58514;48.398;-4.274;2023-02-28T08:26:54;6.60;80.50
70269;DHT22;58514;48.398;-4.274;2023-02-28T08:29:19;6.70;80.50
70269;DHT22;58514;48.398;-4.274;2023-02-28T08:31:45;6.70;81.10
70269;DHT22;58514;48.398;-4.274;2023-02-28T08:34:12;6.70;80.70
70269;DHT22;58514;48.398;-4.274;2023-02-28T08:36:38;6.80;80.90
70269;DHT22;58514;48.398;-4.274;2023-02-28T08:39:04;6.80;81.00
70269;DHT22;58514;48.398;-4.274;2023-02-28T08:41:30;6.90;81.30
70269;DHT22;58514;48.398;-4.274;2023-02-28T08:43:56;7.10;81.60
70269;DHT22;58514;48.398;-4.274;2023-02-28T08:46:22;7.20;81.50
70269;DHT22;58514;48.398;-4.274;2023-02-28T08:48:51;7.40;82.90
70269;DHT22;58514;48.398;-4.274;2023-02-28T08:51:16;7.60;82.80
70269;DHT22;58514;48.398;-4.274;2023-02-28T08:53:46;7.90;83.70
70269;DHT22;58514;48.398;-4.274;2023-02-28T08:56:15;8.10;84.10
70269;DHT22;58514;48.398;-4.274;2023-02-28T08:58:42;8.40;83.60
70269;DHT22;58514;48.398;-4.274;2023-02-28T09:01:11;8.50;81.10
70269;DHT22;58514;48.398;-4.274;2023-02-28T09:03:37;8.50;79.40
70269;DHT22;58514;48.398;-4.274;2023-02-28T09:06:03;8.30;78.40
70269;DHT22;58514;48.398;-4.274;2023-02-28T09:08:30;8.40;79.80
70269;DHT22;58514;48.398;-4.274;2023-02-28T09:10:56;8.40;79.50
70269;DHT22;58514;48.398;-4.274;2023-02-28T09:13:23;8.30;78.00
70269;DHT22;58514;48.398;-4.274;2023-02-28T09:15:49;8.20;78.90
70269;DHT22;58514;48.398;-4.274;2023-02-28T09:18:15;8.20;78.40
70269;DHT22;58514;48.398;-4.274;2023-02-28T09:20:41;8.10;78.80
70269;DHT22;58514;48.398;-4.274;2023-02-28T09:23:07;8.00;78.30
70269;DHT22;58514;48.398;-4.274;2023-02-28T09:25:33;8.00;78.90
70269;DHT22;58514;48.398;-4.274;2023-02-28T09:27:58;8.10;80.10
70269;DHT22;58514;48.398;-4.274;2023-02-28T09:30:24;8.20;80.80
70269;DHT22;58514;48.398;-4.274;2023-02-28T09:32:49;8.50;82.30
70269;DHT22;58514;48.398;-4.274;2023-02-28T09:35:17;8.80;78.80
70269;DHT22;58514;48.398;-4.274;2023-02-28T09:37:43;8.90;78.00
70269;DHT22;58514;48.398;-4.274;2023-02-28T09:40:09;9.00;77.30
70269;DHT22;58514;48.398;-4.274;2023-02-28T09:42:35;9.10;78.70
70269;DHT22;58514;48.398;-4.274;2023-02-28T09:45:02;9.20;77.80
70269;DHT22;58514;48.398;-4.274;2023-02-28T09:47:39;9.40;79.80
70269;DHT22;58514;48.398;-4.274;2023-02-28T09:52:48;9.70;74.70
70269;DHT22;58514;48.398;-4.274;2023-02-28T09:57:41;9.40;73.50
70269;DHT22;58514;48.398;-4.274;2023-02-28T10:05:20;9.30;74.90
70269;DHT22;58514;48.398;-4.274;2023-02-28T10:12:51;9.00;73.70
70269;DHT22;58514;48.398;-4.274;2023-02-28T10:15:17;8.80;73.60
70269;DHT22;58514;48.398;-4.274;2023-02-28T10:17:45;8.70;74.80
70269;DHT22;58514;48.398;-4.274;2023-02-28T10:20:14;8.70;74.60
70269;DHT22;58514;48.398;-4.274;2023-02-28T10:25:33;8.60;73.50
70269;DHT22;58514;48.398;-4.274;2023-02-28T10:28:12;8.50;75.50
70269;DHT22;58514;48.398;-4.274;2023-02-28T10:30:39;8.50;74.30
70269;DHT22;58514;48.398;-4.274;2023-02-28T10:33:05;8.40;74.30
70269;DHT22;58514;48.398;-4.274;2023-02-28T10:35:31;8.30;73.70
70269;DHT22;58514;48.398;-4.274;2023-02-28T10:37:59;8.30;74.00
70269;DHT22;58514;48.398;-4.274;2023-02-28T10:40:30;8.20;74.20
70269;DHT22;58514;48.398;-4.274;2023-02-28T10:42:57;8.10;75.00
70269;DHT22;58514;48.398;-4.274;2023-02-28T10:45:23;8.10;74.80
70269;DHT22;58514;48.398;-4.274;2023-02-28T10:48:33;8.00;75.10
70269;DHT22;58514;48.398;-4.274;2023-02-28T10:50:50;8.00;74.60
70269;DHT22;58514;48.398;-4.274;2023-02-28T10:55:59;7.80;74.80
70269;DHT22;58514;48.398;-4.274;2023-02-28T10:58:30;7.70;74.70
70269;DHT22;58514;48.398;-4.274;2023-02-28T11:00:57;7.70;75.50
70269;DHT22;58514;48.398;-4.274;2023-02-28T11:03:29;7.60;75.70
70269;DHT22;58514;48.398;-4.274;2023-02-28T11:05:54;7.60;75.70
70269;DHT22;58514;48.398;-4.274;2023-02-28T11:08:20;7.60;76.10
70269;DHT22;58514;48.398;-4.274;2023-02-28T11:10:46;7.50;76.90
70269;DHT22;58514;48.398;-4.274;2023-02-28T11:13:19;7.60;76.00
70269;DHT22;58514;48.398;-4.274;2023-02-28T11:15:53;7.50;76.60
70269;DHT22;58514;48.398;-4.274;2023-02-28T11:20:51;7.60;77.40
70269;DHT22;58514;48.398;-4.274;2023-02-28T11:23:18;7.60;77.10
70269;DHT22;58514;48.398;-4.274;2023-02-28T11:25:52;7.60;77.00
70269;DHT22;58514;48.398;-4.274;2023-02-28T11:28:33;7.70;77.50
70269;DHT22;58514;48.398;-4.274;2023-02-28T11:36:02;8.40;81.30
70269;DHT22;58514;48.398;-4.274;2023-02-28T11:38:27;9.10;87.60
70269;DHT22;58514;48.398;-4.274;2023-02-28T11:40:58;10.10;91.60
70269;DHT22;58514;48.398;-4.274;2023-02-28T11:48:40;13.50;90.40
70269;DHT22;58514;48.398;-4.274;2023-02-28T11:56:23;15.70;83.60
70269;DHT22;58514;48.398;-4.274;2023-02-28T11:59:14;15.90;75.70
70269;DHT22;58514;48.398;-4.274;2023-02-28T12:04:29;14.90;68.70
70269;DHT22;58514;48.398;-4.274;2023-02-28T12:14:52;13.10;68.30
70269;DHT22;58514;48.398;-4.274;2023-02-28T12:24:52;11.30;70.90
70269;DHT22;58514;48.398;-4.274;2023-02-28T12:27:21;11.20;72.20
70269;DHT22;58514;48.398;-4.274;2023-02-28T12:29:49;11.00;72.60
70269;DHT22;58514;48.398;-4.274;2023-02-28T12:32:22;11.00;73.70
70269;DHT22;58514;48.398;-4.274;2023-02-28T12:35:03;10.90;74.50
70269;DHT22;58514;48.398;-4.274;2023-02-28T12:39:59;11.80;74.90
70269;DHT22;58514;48.398;-4.274;2023-02-28T12:42:29;12.30;77.80
70269;DHT22;58514;48.398;-4.274;2023-02-28T12:45:01;12.90;78.40
70269;DHT22;58514;48.398;-4.274;2023-02-28T12:47:27;13.40;78.30
70269;DHT22;58514;48.398;-4.274;2023-02-28T12:50:05;13.80;77.20
70269;DHT22;58514;48.398;-4.274;2023-02-28T12:52:35;13.90;71.80
70269;DHT22;58514;48.398;-4.274;2023-02-28T12:55:14;13.70;69.50
70269;DHT22;58514;48.398;-4.274;2023-02-28T12:57:45;13.40;70.40
70269;DHT22;58514;48.398;-4.274;2023-02-28T13:00:19;13.00;70.30
70269;DHT22;58514;48.398;-4.274;2023-02-28T13:10:48;12.80;73.10
70269;DHT22;58514;48.398;-4.274;2023-02-28T13:13:20;12.80;72.80
70269;DHT22;58514;48.398;-4.274;2023-02-28T13:16:00;12.90;73.20
70269;DHT22;58514;48.398;-4.274;2023-02-28T13:18:42;13.00;73.60
70269;DHT22;58514;48.398;-4.274;2023-02-28T13:21:09;13.00;72.70
70269;DHT22;58514;48.398;-4.274;2023-02-28T13:34:27;12.30;71.90
70269;DHT22;58514;48.398;-4.274;2023-02-28T13:42:22;11.70;70.10
70269;DHT22;58514;48.398;-4.274;2023-02-28T13:47:41;11.30;72.10
70269;DHT22;58514;48.398;-4.274;2023-02-28T13:55:29;11.40;73.50
70269;DHT22;58514;48.398;-4.274;2023-02-28T14:05:44;11.70;72.70
70269;DHT22;58514;48.398;-4.274;2023-02-28T14:08:17;11.50;72.00
70269;DHT22;58514;48.398;-4.274;2023-02-28T14:10:49;11.30;72.40
70269;DHT22;58514;48.398;-4.274;2023-02-28T14:16:00;10.90;73.40
70269;DHT22;58514;48.398;-4.274;2023-02-28T14:18:36;10.70;73.90
70269;DHT22;58514;48.398;-4.274;2023-02-28T14:21:19;10.50;73.10
70269;DHT22;58514;48.398;-4.274;2023-02-28T14:24:01;10.30;74.00
70269;DHT22;58514;48.398;-4.274;2023-02-28T14:26:34;10.40;75.90
70269;DHT22;58514;48.398;-4.274;2023-02-28T14:32:33;10.70;76.50
70269;DHT22;58514;48.398;-4.274;2023-02-28T14:34:38;10.90;77.40
70269;DHT22;58514;48.398;-4.274;2023-02-28T14:37:08;11.20;76.90
70269;DHT22;58514;48.398;-4.274;2023-02-28T14:39:36;11.30;74.90
70269;DHT22;58514;48.398;-4.274;2023-02-28T14:42:02;11.10;73.90
70269;DHT22;58514;48.398;-4.274;2023-02-28T14:44:30;10.90;74.90
70269;DHT22;58514;48.398;-4.274;2023-02-28T14:46:56;10.60;74.90
70269;DHT22;58514;48.398;-4.274;2023-02-28T14:52:01;10.20;75.80
70269;DHT22;58514;48.398;-4.274;2023-02-28T14:54:27;10.00;75.40
70269;DHT22;58514;48.398;-4.274;2023-02-28T14:56:53;9.80;76.20
70269;DHT22;58514;48.398;-4.274;2023-02-28T14:59:30;9.80;78.10
70269;DHT22;58514;48.398;-4.274;2023-02-28T15:04:39;10.10;80.80
70269;DHT22;58514;48.398;-4.274;2023-02-28T15:07:08;10.50;81.60
70269;DHT22;58514;48.398;-4.274;2023-02-28T15:09:34;10.70;80.10
70269;DHT22;58514;48.398;-4.274;2023-02-28T15:12:00;10.80;78.50
70269;DHT22;58514;48.398;-4.274;2023-02-28T15:14:26;10.80;77.90
70269;DHT22;58514;48.398;-4.274;2023-02-28T15:16:57;10.70;77.20
70269;DHT22;58514;48.398;-4.274;2023-02-28T15:19:24;10.50;76.30
70269;DHT22;58514;48.398;-4.274;2023-02-28T15:24:40;10.40;78.30
70269;DHT22;58514;48.398;-4.274;2023-02-28T15:27:10;10.50;79.50
70269;DHT22;58514;48.398;-4.274;2023-02-28T15:29:47;10.70;79.20
70269;DHT22;58514;48.398;-4.274;2023-02-28T15:34:47;10.90;78.40
70269;DHT22;58514;48.398;-4.274;2023-02-28T15:37:30;10.80;77.60
70269;DHT22;58514;48.398;-4.274;2023-02-28T15:40:35;10.70;77.10
70269;DHT22;58514;48.398;-4.274;2023-02-28T15:43:36;10.50;77.60
70269;DHT22;58514;48.398;-4.274;2023-02-28T15:45:37;10.40;76.90
70269;DHT22;58514;48.398;-4.274;2023-02-28T15:48:13;10.20;76.30
70269;DHT22;58514;48.398;-4.274;2023-02-28T15:50:39;10.10;76.90
70269;DHT22;58514;48.398;-4.274;2023-02-28T15:53:05;9.90;76.60
70269;DHT22;58514;48.398;-4.274;2023-02-28T15:55:37;9.80;77.40
70269;DHT22;58514;48.398;-4.274;2023-02-28T15:58:04;9.70;77.40
70269;DHT22;58514;48.398;-4.274;2023-02-28T16:00:31;9.60;77.30
70269;DHT22;58514;48.398;-4.274;2023-02-28T16:02:58;9.50;78.10
70269;DHT22;58514;48.398;-4.274;2023-02-28T16:05:25;9.40;77.80
70269;DHT22;58514;48.398;-4.274;2023-02-28T16:07:59;9.40;77.80
70269;DHT22;58514;48.398;-4.274;2023-02-28T16:10:26;9.30;78.40
70269;DHT22;58514;48.398;-4.274;2023-02-28T16:12:53;9.20;79.50
70269;DHT22;58514;48.398;-4.274;2023-02-28T16:15:26;9.20;80.00
70269;DHT22;58514;48.398;-4.274;2023-02-28T16:17:54;9.20;79.40
70269;DHT22;58514;48.398;-4.274;2023-02-28T16:20:24;9.20;80.00
70269;DHT22;58514;48.398;-4.274;2023-02-28T16:22:50;9.20;79.50
70269;DHT22;58514;48.398;-4.274;2023-02-28T16:25:16;9.20;79.30
70269;DHT22;58514;48.398;-4.274;2023-02-28T16:27:42;9.20;79.60
70269;DHT22;58514;48.398;-4.274;2023-02-28T16:30:19;9.20;80.10
70269;DHT22;58514;48.398;-4.274;2023-02-28T16:32:45;9.10;78.80
70269;DHT22;58514;48.398;-4.274;2023-02-28T16:35:11;9.10;79.00
70269;DHT22;58514;48.398;-4.274;2023-02-28T16:37:39;9.00;79.20
70269;DHT22;58514;48.398;-4.274;2023-02-28T16:40:05;8.90;79.70
70269;DHT22;58514;48.398;-4.274;2023-02-28T16:42:30;8.90;79.10
70269;DHT22;58514;48.398;-4.274;2023-02-28T16:44:56;8.80;79.80
70269;DHT22;58514;48.398;-4.274;2023-02-28T16:47:23;8.80;79.90
70269;DHT22;58514;48.398;-4.274;2023-02-28T16:49:49;8.80;80.00
70269;DHT22;58514;48.398;-4.274;2023-02-28T16:52:14;8.80;79.90
70269;DHT22;58514;48.398;-4.274;2023-02-28T16:54:40;8.80;80.80
70269;DHT22;58514;48.398;-4.274;2023-02-28T16:57:07;8.80;80.80
70269;DHT22;58514;48.398;-4.274;2023-02-28T16:59:40;8.90;80.10
70269;DHT22;58514;48.398;-4.274;2023-02-28T17:02:12;8.90;79.80
70269;DHT22;58514;48.398;-4.274;2023-02-28T17:04:39;8.80;79.60
70269;DHT22;58514;48.398;-4.274;2023-02-28T17:07:04;8.80;79.30
70269;DHT22;58514;48.398;-4.274;2023-02-28T17:09:30;8.80;79.50
70269;DHT22;58514;48.398;-4.274;2023-02-28T17:11:56;8.70;80.00
70269;DHT22;58514;48.398;-4.274;2023-02-28T17:14:21;8.70;79.90
70269;DHT22;58514;48.398;-4.274;2023-02-28T17:16:49;8.70;79.90
70269;DHT22;58514;48.398;-4.274;2023-02-28T17:19:15;8.70;79.70
70269;DHT22;58514;48.398;-4.274;2023-02-28T17:21:42;8.70;79.80
70269;DHT22;58514;48.398;-4.274;2023-02-28T17:24:08;8.50;80.40
70269;DHT22;58514;48.398;-4.274;2023-02-28T17:26:34;8.50;79.80
70269;DHT22;58514;48.398;-4.274;2023-02-28T17:28:59;8.50;80.10
70269;DHT22;58514;48.398;-4.274;2023-02-28T17:31:25;8.50;79.70
70269;DHT22;58514;48.398;-4.274;2023-02-28T17:33:51;8.50;80.50
70269;DHT22;58514;48.398;-4.274;2023-02-28T17:36:18;8.50;80.40
70269;DHT22;58514;48.398;-4.274;2023-02-28T17:38:47;8.50;80.80
70269;DHT22;58514;48.398;-4.274;2023-02-28T17:41:13;8.50;80.70
70269;DHT22;58514;48.398;-4.274;2023-02-28T17:43:38;8.50;80.70
70269;DHT22;58514;48.398;-4.274;2023-02-28T17:46:05;8.40;80.80
70269;DHT22;58514;48.398;-4.274;2023-02-28T17:48:31;8.40;80.80
70269;DHT22;58514;48.398;-4.274;2023-02-28T17:50:57;8.40;81.10
70269;DHT22;58514;48.398;-4.274;2023-02-28T17:53:22;8.50;81.50
70269;DHT22;58514;48.398;-4.274;2023-02-28T17:55:48;8.50;81.10
70269;DHT22;58514;48.398;-4.274;2023-02-28T17:58:14;8.40;80.90
70269;DHT22;58514;48.398;-4.274;2023-02-28T18:00:40;8.50;80.80
70269;DHT22;58514;48.398;-4.274;2023-02-28T18:03:05;8.40;80.50
70269;DHT22;58514;48.398;-4.274;2023-02-28T18:05:32;8.40;80.70
70269;DHT22;58514;48.398;-4.274;2023-02-28T18:07:57;8.40;80.90
70269;DHT22;58514;48.398;-4.274;2023-02-28T18:10:23;8.30;80.90